Terminal Aerodrome Forecast
Issued by NWS Albany, NY

Home | Current Version | Previous Version | Text Only | Print | Product List | Glossary On
Versions: 1 2 3 4 5 6 7 8 9 10 11 12 13 14 15 16 17 18 19 20
000
FTUS41 KALY 220900 AAA
TAFALB
TAF AMD
KALB 220901Z 2209/2306 VRB03KT P6SM BKN025 OVC035
      TEMPO 2209/2212 6SM -SHSN
     FM221500 11005KT P6SM OVC035
     FM230000 11003KT P6SM VCSH OVC025=

USA.gov is the U.S. government's official web portal to all federal, state and local government web resources and services.